sensor_id;sensor_type;location;lat;lon;timestamp;P1;durP1;ratioP1;P2;durP2;ratioP2
70433;SDS011;57876;47.792;12.960;2023-02-01T00:01:52;3.42;;;0.70;;
70433;SDS011;57876;47.792;12.960;2023-02-01T00:04:16;3.23;;;0.60;;
70433;SDS011;57876;47.792;12.960;2023-02-01T00:06:41;3.30;;;0.70;;
70433;SDS011;57876;47.792;12.960;2023-02-01T00:09:05;3.35;;;0.63;;
70433;SDS011;57876;47.792;12.960;2023-02-01T00:11:29;3.20;;;0.67;;
70433;SDS011;57876;47.792;12.960;2023-02-01T00:13:54;3.53;;;0.63;;
70433;SDS011;57876;47.792;12.960;2023-02-01T00:16:20;3.08;;;0.60;;
70433;SDS011;57876;47.792;12.960;2023-02-01T00:18:46;3.40;;;0.70;;
70433;SDS011;57876;47.792;12.960;2023-02-01T00:21:13;3.70;;;0.67;;
70433;SDS011;57876;47.792;12.960;2023-02-01T00:23:39;3.17;;;0.68;;
70433;SDS011;57876;47.792;12.960;2023-02-01T00:26:05;3.22;;;0.60;;
70433;SDS011;57876;47.792;12.960;2023-02-01T00:28:31;3.30;;;0.70;;
70433;SDS011;57876;47.792;12.960;2023-02-01T00:31:00;3.00;;;0.60;;
70433;SDS011;57876;47.792;12.960;2023-02-01T00:33:25;3.22;;;0.60;;
70433;SDS011;57876;47.792;12.960;2023-02-01T00:35:50;2.78;;;0.50;;
70433;SDS011;57876;47.792;12.960;2023-02-01T00:38:14;2.67;;;0.50;;
70433;SDS011;57876;47.792;12.960;2023-02-01T00:40:38;3.50;;;0.70;;
70433;SDS011;57876;47.792;12.960;2023-02-01T00:43:03;2.90;;;0.50;;
70433;SDS011;57876;47.792;12.960;2023-02-01T00:45:27;3.85;;;0.70;;
70433;SDS011;57876;47.792;12.960;2023-02-01T00:47:52;3.10;;;0.50;;
70433;SDS011;57876;47.792;12.960;2023-02-01T00:50:16;3.17;;;0.60;;
70433;SDS011;57876;47.792;12.960;2023-02-01T00:52:40;3.33;;;0.70;;
70433;SDS011;57876;47.792;12.960;2023-02-01T00:55:05;3.73;;;0.63;;
70433;SDS011;57876;47.792;12.960;2023-02-01T00:57:30;2.20;;;0.45;;
70433;SDS011;57876;47.792;12.960;2023-02-01T00:59:54;3.33;;;0.70;;
70433;SDS011;57876;47.792;12.960;2023-02-01T01:02:19;2.80;;;0.57;;
70433;SDS011;57876;47.792;12.960;2023-02-01T01:04:43;3.10;;;0.60;;
70433;SDS011;57876;47.792;12.960;2023-02-01T01:07:08;2.57;;;0.50;;
70433;SDS011;57876;47.792;12.960;2023-02-01T01:09:32;2.83;;;0.50;;
70433;SDS011;57876;47.792;12.960;2023-02-01T01:11:56;3.17;;;0.60;;
70433;SDS011;57876;47.792;12.960;2023-02-01T01:14:26;3.47;;;0.60;;
70433;SDS011;57876;47.792;12.960;2023-02-01T01:16:50;2.87;;;0.50;;
70433;SDS011;57876;47.792;12.960;2023-02-01T01:19:15;3.40;;;0.60;;
70433;SDS011;57876;47.792;12.960;2023-02-01T01:21:39;3.70;;;0.60;;
70433;SDS011;57876;47.792;12.960;2023-02-01T01:24:03;2.63;;;0.60;;
70433;SDS011;57876;47.792;12.960;2023-02-01T01:26:28;2.50;;;0.45;;
70433;SDS011;57876;47.792;12.960;2023-02-01T01:28:57;2.70;;;0.55;;
70433;SDS011;57876;47.792;12.960;2023-02-01T01:31:23;2.87;;;0.50;;
70433;SDS011;57876;47.792;12.960;2023-02-01T01:33:49;2.60;;;0.50;;
70433;SDS011;57876;47.792;12.960;2023-02-01T01:36:15;2.42;;;0.40;;
70433;SDS011;57876;47.792;12.960;2023-02-01T01:38:40;3.03;;;0.50;;
70433;SDS011;57876;47.792;12.960;2023-02-01T01:41:05;3.83;;;0.57;;
70433;SDS011;57876;47.792;12.960;2023-02-01T01:44:04;2.35;;;0.50;;
70433;SDS011;57876;47.792;12.960;2023-02-01T01:46:22;2.78;;;0.50;;
70433;SDS011;57876;47.792;12.960;2023-02-01T01:48:50;2.60;;;0.43;;
70433;SDS011;57876;47.792;12.960;2023-02-01T01:51:19;2.53;;;0.50;;
70433;SDS011;57876;47.792;12.960;2023-02-01T01:53:52;3.10;;;0.60;;
70433;SDS011;57876;47.792;12.960;2023-02-01T01:56:24;3.05;;;0.50;;
70433;SDS011;57876;47.792;12.960;2023-02-01T01:58:51;3.13;;;0.55;;
70433;SDS011;57876;47.792;12.960;2023-02-01T02:01:16;2.92;;;0.60;;
70433;SDS011;57876;47.792;12.960;2023-02-01T02:03:42;2.57;;;0.50;;
70433;SDS011;57876;47.792;12.960;2023-02-01T02:06:12;2.65;;;0.50;;
70433;SDS011;57876;47.792;12.960;2023-02-01T02:08:45;2.03;;;0.30;;
70433;SDS011;57876;47.792;12.960;2023-02-01T02:11:10;3.00;;;0.60;;
70433;SDS011;57876;47.792;12.960;2023-02-01T02:13:39;2.60;;;0.50;;
70433;SDS011;57876;47.792;12.960;2023-02-01T02:27:18;3.05;;;0.52;;
70433;SDS011;57876;47.792;12.960;2023-02-01T02:32:47;2.60;;;0.40;;
70433;SDS011;57876;47.792;12.960;2023-02-01T02:38:29;2.55;;;0.50;;
70433;SDS011;57876;47.792;12.960;2023-02-01T02:41:06;2.45;;;0.50;;
70433;SDS011;57876;47.792;12.960;2023-02-01T02:47:15;2.35;;;0.50;;
70433;SDS011;57876;47.792;12.960;2023-02-01T02:50:05;3.05;;;0.60;;
70433;SDS011;57876;47.792;12.960;2023-02-01T02:53:16;2.88;;;0.60;;
70433;SDS011;57876;47.792;12.960;2023-02-01T02:56:05;2.60;;;0.50;;
70433;SDS011;57876;47.792;12.960;2023-02-01T02:58:50;1.83;;;0.40;;
70433;SDS011;57876;47.792;12.960;2023-02-01T03:01:35;2.88;;;0.50;;
70433;SDS011;57876;47.792;12.960;2023-02-01T03:04:19;2.85;;;0.52;;
70433;SDS011;57876;47.792;12.960;2023-02-01T03:06:45;2.65;;;0.50;;
70433;SDS011;57876;47.792;12.960;2023-02-01T03:09:12;2.47;;;0.40;;
70433;SDS011;57876;47.792;12.960;2023-02-01T03:11:44;2.20;;;0.40;;
70433;SDS011;57876;47.792;12.960;2023-02-01T03:14:30;2.85;;;0.50;;
70433;SDS011;57876;47.792;12.960;2023-02-01T03:17:05;3.60;;;0.50;;
70433;SDS011;57876;47.792;12.960;2023-02-01T03:19:43;2.25;;;0.40;;
70433;SDS011;57876;47.792;12.960;2023-02-01T03:22:14;3.10;;;0.43;;
70433;SDS011;57876;47.792;12.960;2023-02-01T03:24:42;1.40;;;0.30;;
70433;SDS011;57876;47.792;12.960;2023-02-01T03:30:04;2.50;;;0.40;;
70433;SDS011;57876;47.792;12.960;2023-02-01T03:32:33;2.25;;;0.45;;
70433;SDS011;57876;47.792;12.960;2023-02-01T03:35:19;2.40;;;0.40;;
70433;SDS011;57876;47.792;12.960;2023-02-01T03:37:52;1.60;;;0.30;;
70433;SDS011;57876;47.792;12.960;2023-02-01T03:40:20;2.40;;;0.40;;
70433;SDS011;57876;47.792;12.960;2023-02-01T03:42:46;2.10;;;0.40;;
70433;SDS011;57876;47.792;12.960;2023-02-01T03:47:52;1.50;;;0.30;;
70433;SDS011;57876;47.792;12.960;2023-02-01T03:50:20;2.38;;;0.40;;
70433;SDS011;57876;47.792;12.960;2023-02-01T03:55:26;2.03;;;0.45;;
70433;SDS011;57876;47.792;12.960;2023-02-01T03:57:56;2.00;;;0.30;;
70433;SDS011;57876;47.792;12.960;2023-02-01T04:00:22;2.30;;;0.40;;
70433;SDS011;57876;47.792;12.960;2023-02-01T04:02:48;2.22;;;0.40;;
70433;SDS011;57876;47.792;12.960;2023-02-01T04:05:13;2.45;;;0.40;;
70433;SDS011;57876;47.792;12.960;2023-02-01T04:07:37;3.20;;;0.60;;
70433;SDS011;57876;47.792;12.960;2023-02-01T04:10:02;2.57;;;0.47;;
70433;SDS011;57876;47.792;12.960;2023-02-01T04:12:27;2.50;;;0.40;;
70433;SDS011;57876;47.792;12.960;2023-02-01T04:14:51;2.00;;;0.40;;
70433;SDS011;57876;47.792;12.960;2023-02-01T04:17:16;2.07;;;0.40;;
70433;SDS011;57876;47.792;12.960;2023-02-01T04:19:40;1.90;;;0.30;;
70433;SDS011;57876;47.792;12.960;2023-02-01T04:22:04;2.07;;;0.30;;
70433;SDS011;57876;47.792;12.960;2023-02-01T04:24:29;1.80;;;0.30;;
70433;SDS011;57876;47.792;12.960;2023-02-01T04:26:53;2.03;;;0.40;;
70433;SDS011;57876;47.792;12.960;2023-02-01T04:29:18;2.33;;;0.40;;
70433;SDS011;57876;47.792;12.960;2023-02-01T04:31:42;2.30;;;0.40;;
70433;SDS011;57876;47.792;12.960;2023-02-01T04:34:06;2.47;;;0.40;;
70433;SDS011;57876;47.792;12.960;2023-02-01T04:36:31;1.87;;;0.37;;
70433;SDS011;57876;47.792;12.960;2023-02-01T04:38:55;2.60;;;0.47;;
70433;SDS011;57876;47.792;12.960;2023-02-01T04:41:20;2.10;;;0.30;;
70433;SDS011;57876;47.792;12.960;2023-02-01T04:43:46;2.43;;;0.40;;
70433;SDS011;57876;47.792;12.960;2023-02-01T04:46:11;2.35;;;0.40;;
70433;SDS011;57876;47.792;12.960;2023-02-01T04:48:36;2.40;;;0.40;;
70433;SDS011;57876;47.792;12.960;2023-02-01T04:51:00;2.03;;;0.40;;
70433;SDS011;57876;47.792;12.960;2023-02-01T04:53:25;2.10;;;0.30;;
70433;SDS011;57876;47.792;12.960;2023-02-01T04:55:54;2.17;;;0.40;;
70433;SDS011;57876;47.792;12.960;2023-02-01T04:58:18;2.40;;;0.40;;
70433;SDS011;57876;47.792;12.960;2023-02-01T05:00:43;2.60;;;0.43;;
70433;SDS011;57876;47.792;12.960;2023-02-01T05:03:07;1.80;;;0.30;;
70433;SDS011;57876;47.792;12.960;2023-02-01T05:05:31;1.93;;;0.30;;
70433;SDS011;57876;47.792;12.960;2023-02-01T05:07:56;2.05;;;0.30;;
70433;SDS011;57876;47.792;12.960;2023-02-01T05:10:20;1.97;;;0.40;;
70433;SDS011;57876;47.792;12.960;2023-02-01T05:12:46;2.30;;;0.40;;
70433;SDS011;57876;47.792;12.960;2023-02-01T05:15:29;1.45;;;0.30;;
70433;SDS011;57876;47.792;12.960;2023-02-01T05:17:54;2.20;;;0.40;;
70433;SDS011;57876;47.792;12.960;2023-02-01T05:20:19;1.95;;;0.40;;
70433;SDS011;57876;47.792;12.960;2023-02-01T05:22:43;2.37;;;0.40;;
70433;SDS011;57876;47.792;12.960;2023-02-01T05:25:08;1.67;;;0.30;;
70433;SDS011;57876;47.792;12.960;2023-02-01T05:27:32;1.73;;;0.30;;
70433;SDS011;57876;47.792;12.960;2023-02-01T05:29:57;1.90;;;0.40;;
70433;SDS011;57876;47.792;12.960;2023-02-01T05:32:21;1.60;;;0.30;;
70433;SDS011;57876;47.792;12.960;2023-02-01T05:34:46;2.13;;;0.40;;
70433;SDS011;57876;47.792;12.960;2023-02-01T05:37:10;2.23;;;0.40;;
70433;SDS011;57876;47.792;12.960;2023-02-01T05:39:34;2.37;;;0.40;;
70433;SDS011;57876;47.792;12.960;2023-02-01T05:41:59;2.33;;;0.40;;
70433;SDS011;57876;47.792;12.960;2023-02-01T05:44:23;2.10;;;0.40;;
70433;SDS011;57876;47.792;12.960;2023-02-01T05:46:48;1.98;;;0.40;;
70433;SDS011;57876;47.792;12.960;2023-02-01T05:49:16;2.30;;;0.40;;
70433;SDS011;57876;47.792;12.960;2023-02-01T05:51:40;2.23;;;0.47;;
70433;SDS011;57876;47.792;12.960;2023-02-01T05:54:05;2.53;;;0.40;;
70433;SDS011;57876;47.792;12.960;2023-02-01T05:56:29;2.27;;;0.40;;
70433;SDS011;57876;47.792;12.960;2023-02-01T05:58:54;2.22;;;0.30;;
70433;SDS011;57876;47.792;12.960;2023-02-01T06:01:18;1.70;;;0.20;;
70433;SDS011;57876;47.792;12.960;2023-02-01T06:03:45;2.20;;;0.40;;
70433;SDS011;57876;47.792;12.960;2023-02-01T06:06:12;1.88;;;0.40;;
70433;SDS011;57876;47.792;12.960;2023-02-01T06:08:36;1.77;;;0.30;;
70433;SDS011;57876;47.792;12.960;2023-02-01T06:11:04;2.00;;;0.40;;
70433;SDS011;57876;47.792;12.960;2023-02-01T06:13:29;2.08;;;0.40;;
70433;SDS011;57876;47.792;12.960;2023-02-01T06:15:53;2.00;;;0.40;;
70433;SDS011;57876;47.792;12.960;2023-02-01T06:18:19;1.88;;;0.30;;
70433;SDS011;57876;47.792;12.960;2023-02-01T06:20:44;1.90;;;0.40;;
70433;SDS011;57876;47.792;12.960;2023-02-01T06:23:08;2.10;;;0.40;;
70433;SDS011;57876;47.792;12.960;2023-02-01T06:25:32;2.27;;;0.40;;
70433;SDS011;57876;47.792;12.960;2023-02-01T06:27:59;2.47;;;0.53;;
70433;SDS011;57876;47.792;12.960;2023-02-01T06:30:24;1.88;;;0.30;;
70433;SDS011;57876;47.792;12.960;2023-02-01T06:32:50;2.03;;;0.40;;
70433;SDS011;57876;47.792;12.960;2023-02-01T06:35:18;2.13;;;0.40;;
70433;SDS011;57876;47.792;12.960;2023-02-01T06:37:42;2.50;;;0.40;;
70433;SDS011;57876;47.792;12.960;2023-02-01T06:40:07;2.30;;;0.33;;
70433;SDS011;57876;47.792;12.960;2023-02-01T06:42:32;1.65;;;0.30;;
70433;SDS011;57876;47.792;12.960;2023-02-01T06:44:57;2.00;;;0.40;;
70433;SDS011;57876;47.792;12.960;2023-02-01T06:47:21;2.40;;;0.35;;
70433;SDS011;57876;47.792;12.960;2023-02-01T06:49:45;1.97;;;0.40;;
70433;SDS011;57876;47.792;12.960;2023-02-01T06:52:10;2.20;;;0.40;;
70433;SDS011;57876;47.792;12.960;2023-02-01T06:54:34;2.03;;;0.40;;
70433;SDS011;57876;47.792;12.960;2023-02-01T06:57:01;2.40;;;0.50;;
70433;SDS011;57876;47.792;12.960;2023-02-01T06:59:25;2.17;;;0.37;;
70433;SDS011;57876;47.792;12.960;2023-02-01T07:01:49;2.03;;;0.40;;
70433;SDS011;57876;47.792;12.960;2023-02-01T07:04:14;1.67;;;0.30;;
70433;SDS011;57876;47.792;12.960;2023-02-01T07:06:39;2.20;;;0.37;;
70433;SDS011;57876;47.792;12.960;2023-02-01T07:09:03;1.98;;;0.40;;
70433;SDS011;57876;47.792;12.960;2023-02-01T07:11:28;2.03;;;0.40;;
70433;SDS011;57876;47.792;12.960;2023-02-01T07:13:52;1.43;;;0.23;;
70433;SDS011;57876;47.792;12.960;2023-02-01T07:16:17;2.33;;;0.50;;
70433;SDS011;57876;47.792;12.960;2023-02-01T07:18:43;2.27;;;0.40;;
70433;SDS011;57876;47.792;12.960;2023-02-01T07:21:08;2.38;;;0.50;;
70433;SDS011;57876;47.792;12.960;2023-02-01T07:23:35;2.40;;;0.40;;
70433;SDS011;57876;47.792;12.960;2023-02-01T07:26:02;2.63;;;0.40;;
70433;SDS011;57876;47.792;12.960;2023-02-01T07:28:28;1.83;;;0.38;;
70433;SDS011;57876;47.792;12.960;2023-02-01T07:30:54;1.73;;;0.30;;
70433;SDS011;57876;47.792;12.960;2023-02-01T07:33:22;2.33;;;0.50;;
70433;SDS011;57876;47.792;12.960;2023-02-01T07:35:48;2.15;;;0.40;;
70433;SDS011;57876;47.792;12.960;2023-02-01T07:38:13;2.20;;;0.45;;
70433;SDS011;57876;47.792;12.960;2023-02-01T07:40:38;1.73;;;0.37;;
70433;SDS011;57876;47.792;12.960;2023-02-01T07:43:05;2.70;;;0.47;;
70433;SDS011;57876;47.792;12.960;2023-02-01T07:45:31;1.97;;;0.30;;
70433;SDS011;57876;47.792;12.960;2023-02-01T07:47:56;1.42;;;0.30;;
70433;SDS011;57876;47.792;12.960;2023-02-01T07:50:20;1.90;;;0.30;;
70433;SDS011;57876;47.792;12.960;2023-02-01T07:52:44;2.20;;;0.40;;
70433;SDS011;57876;47.792;12.960;2023-02-01T07:55:09;1.97;;;0.30;;
70433;SDS011;57876;47.792;12.960;2023-02-01T07:57:33;2.45;;;0.40;;
70433;SDS011;57876;47.792;12.960;2023-02-01T07:59:58;2.27;;;0.40;;
70433;SDS011;57876;47.792;12.960;2023-02-01T08:02:40;2.03;;;0.40;;
70433;SDS011;57876;47.792;12.960;2023-02-01T08:05:05;2.37;;;0.50;;
70433;SDS011;57876;47.792;12.960;2023-02-01T08:07:30;2.17;;;0.40;;
70433;SDS011;57876;47.792;12.960;2023-02-01T08:09:54;2.17;;;0.40;;
70433;SDS011;57876;47.792;12.960;2023-02-01T08:12:19;2.60;;;0.50;;
70433;SDS011;57876;47.792;12.960;2023-02-01T08:14:43;1.87;;;0.30;;
70433;SDS011;57876;47.792;12.960;2023-02-01T08:17:07;2.30;;;0.40;;
70433;SDS011;57876;47.792;12.960;2023-02-01T08:19:32;1.90;;;0.30;;
70433;SDS011;57876;47.792;12.960;2023-02-01T08:21:56;1.90;;;0.30;;
70433;SDS011;57876;47.792;12.960;2023-02-01T08:24:21;2.27;;;0.40;;
70433;SDS011;57876;47.792;12.960;2023-02-01T08:26:45;1.83;;;0.30;;
70433;SDS011;57876;47.792;12.960;2023-02-01T08:29:10;2.27;;;0.40;;
70433;SDS011;57876;47.792;12.960;2023-02-01T08:31:36;2.53;;;0.40;;
70433;SDS011;57876;47.792;12.960;2023-02-01T08:34:04;1.67;;;0.30;;
70433;SDS011;57876;47.792;12.960;2023-02-01T08:36:29;2.83;;;0.30;;
70433;SDS011;57876;47.792;12.960;2023-02-01T08:38:55;2.58;;;0.40;;
70433;SDS011;57876;47.792;12.960;2023-02-01T08:41:21;1.90;;;0.30;;
70433;SDS011;57876;47.792;12.960;2023-02-01T08:43:48;1.77;;;0.30;;
70433;SDS011;57876;47.792;12.960;2023-02-01T08:46:12;1.63;;;0.30;;
70433;SDS011;57876;47.792;12.960;2023-02-01T08:48:37;1.80;;;0.30;;
70433;SDS011;57876;47.792;12.960;2023-02-01T08:51:06;1.90;;;0.30;;
70433;SDS011;57876;47.792;12.960;2023-02-01T08:53:34;1.83;;;0.30;;
70433;SDS011;57876;47.792;12.960;2023-02-01T08:56:00;2.33;;;0.40;;
70433;SDS011;57876;47.792;12.960;2023-02-01T08:58:24;1.80;;;0.30;;
70433;SDS011;57876;47.792;12.960;2023-02-01T09:00:49;1.60;;;0.30;;
70433;SDS011;57876;47.792;12.960;2023-02-01T09:03:14;2.20;;;0.40;;
70433;SDS011;57876;47.792;12.960;2023-02-01T09:05:39;2.08;;;0.40;;
70433;SDS011;57876;47.792;12.960;2023-02-01T09:08:03;2.47;;;0.40;;
70433;SDS011;57876;47.792;12.960;2023-02-01T09:10:28;2.10;;;0.40;;
70433;SDS011;57876;47.792;12.960;2023-02-01T09:12:52;2.83;;;0.50;;
70433;SDS011;57876;47.792;12.960;2023-02-01T09:15:17;2.97;;;0.60;;
70433;SDS011;57876;47.792;12.960;2023-02-01T09:17:41;3.75;;;0.50;;
70433;SDS011;57876;47.792;12.960;2023-02-01T09:20:08;3.33;;;0.70;;
70433;SDS011;57876;47.792;12.960;2023-02-01T09:22:34;3.90;;;0.83;;
70433;SDS011;57876;47.792;12.960;2023-02-01T09:24:58;3.15;;;0.65;;
70433;SDS011;57876;47.792;12.960;2023-02-01T09:27:23;3.23;;;0.60;;
70433;SDS011;57876;47.792;12.960;2023-02-01T09:29:47;3.23;;;0.60;;
70433;SDS011;57876;47.792;12.960;2023-02-01T09:32:16;5.82;;;0.73;;
70433;SDS011;57876;47.792;12.960;2023-02-01T09:34:40;3.37;;;0.70;;
70433;SDS011;57876;47.792;12.960;2023-02-01T09:37:05;3.33;;;0.60;;
70433;SDS011;57876;47.792;12.960;2023-02-01T09:39:29;3.27;;;0.60;;
70433;SDS011;57876;47.792;12.960;2023-02-01T09:47:38;3.22;;;0.65;;
70433;SDS011;57876;47.792;12.960;2023-02-01T09:50:13;2.88;;;0.60;;
70433;SDS011;57876;47.792;12.960;2023-02-01T09:52:45;3.07;;;0.60;;
70433;SDS011;57876;47.792;12.960;2023-02-01T09:56:00;4.55;;;0.52;;
70433;SDS011;57876;47.792;12.960;2023-02-01T09:58:29;3.15;;;0.70;;
70433;SDS011;57876;47.792;12.960;2023-02-01T10:00:55;3.03;;;0.57;;
70433;SDS011;57876;47.792;12.960;2023-02-01T10:22:39;2.93;;;0.60;;
70433;SDS011;57876;47.792;12.960;2023-02-01T10:28:11;3.83;;;0.50;;
70433;SDS011;57876;47.792;12.960;2023-02-01T10:30:44;2.65;;;0.50;;
70433;SDS011;57876;47.792;12.960;2023-02-01T10:36:00;2.77;;;0.40;;
70433;SDS011;57876;47.792;12.960;2023-02-01T10:38:35;3.65;;;0.73;;
70433;SDS011;57876;47.792;12.960;2023-02-01T10:41:07;2.55;;;0.50;;
70433;SDS011;57876;47.792;12.960;2023-02-01T10:43:37;3.47;;;0.60;;
70433;SDS011;57876;47.792;12.960;2023-02-01T10:46:03;2.80;;;0.60;;
70433;SDS011;57876;47.792;12.960;2023-02-01T10:48:29;2.40;;;0.50;;
70433;SDS011;57876;47.792;12.960;2023-02-01T10:56:26;2.30;;;0.47;;
70433;SDS011;57876;47.792;12.960;2023-02-01T10:58:52;3.37;;;0.50;;
70433;SDS011;57876;47.792;12.960;2023-02-01T11:01:28;2.85;;;0.52;;
70433;SDS011;57876;47.792;12.960;2023-02-01T11:03:58;3.03;;;0.47;;
70433;SDS011;57876;47.792;12.960;2023-02-01T11:06:30;2.75;;;0.50;;
70433;SDS011;57876;47.792;12.960;2023-02-01T11:08:58;3.22;;;0.57;;
70433;SDS011;57876;47.792;12.960;2023-02-01T11:11:25;2.37;;;0.40;;
70433;SDS011;57876;47.792;12.960;2023-02-01T11:13:54;3.25;;;0.50;;
70433;SDS011;57876;47.792;12.960;2023-02-01T11:16:28;3.47;;;0.60;;
70433;SDS011;57876;47.792;12.960;2023-02-01T11:19:02;3.20;;;0.50;;
70433;SDS011;57876;47.792;12.960;2023-02-01T11:21:27;3.38;;;0.70;;
70433;SDS011;57876;47.792;12.960;2023-02-01T11:23:52;3.20;;;0.60;;
70433;SDS011;57876;47.792;12.960;2023-02-01T11:26:26;3.90;;;0.63;;
70433;SDS011;57876;47.792;12.960;2023-02-01T11:28:53;2.87;;;0.50;;
70433;SDS011;57876;47.792;12.960;2023-02-01T11:31:22;2.65;;;0.50;;
70433;SDS011;57876;47.792;12.960;2023-02-01T11:33:52;3.22;;;0.60;;
70433;SDS011;57876;47.792;12.960;2023-02-01T11:36:21;2.78;;;0.50;;
70433;SDS011;57876;47.792;12.960;2023-02-01T11:39:16;2.35;;;0.50;;
70433;SDS011;57876;47.792;12.960;2023-02-01T11:42:00;2.53;;;0.50;;
70433;SDS011;57876;47.792;12.960;2023-02-01T11:47:18;2.13;;;0.47;;
70433;SDS011;57876;47.792;12.960;2023-02-01T11:49:49;3.28;;;0.50;;
70433;SDS011;57876;47.792;12.960;2023-02-01T11:52:30;3.05;;;0.60;;
70433;SDS011;57876;47.792;12.960;2023-02-01T11:55:22;2.87;;;0.60;;
70433;SDS011;57876;47.792;12.960;2023-02-01T11:58:23;2.75;;;0.50;;
70433;SDS011;57876;47.792;12.960;2023-02-01T12:06:46;2.75;;;0.60;;
70433;SDS011;57876;47.792;12.960;2023-02-01T12:14:56;3.00;;;0.40;;
70433;SDS011;57876;47.792;12.960;2023-02-01T12:25:54;2.92;;;0.52;;
70433;SDS011;57876;47.792;12.960;2023-02-01T12:42:56;2.83;;;0.47;;
70433;SDS011;57876;47.792;12.960;2023-02-01T12:45:36;2.45;;;0.47;;
70433;SDS011;57876;47.792;12.960;2023-02-01T12:50:49;3.10;;;0.50;;
70433;SDS011;57876;47.792;12.960;2023-02-01T12:53:19;2.97;;;0.60;;
70433;SDS011;57876;47.792;12.960;2023-02-01T12:55:53;2.67;;;0.47;;
70433;SDS011;57876;47.792;12.960;2023-02-01T13:01:06;3.22;;;0.60;;
70433;SDS011;57876;47.792;12.960;2023-02-01T13:03:44;3.00;;;0.60;;
70433;SDS011;57876;47.792;12.960;2023-02-01T13:06:19;3.08;;;0.50;;
70433;SDS011;57876;47.792;12.960;2023-02-01T13:11:26;2.97;;;0.60;;
70433;SDS011;57876;47.792;12.960;2023-02-01T13:16:54;3.42;;;0.50;;
70433;SDS011;57876;47.792;12.960;2023-02-01T13:19:40;3.13;;;0.52;;
70433;SDS011;57876;47.792;12.960;2023-02-01T13:22:15;2.03;;;0.40;;
70433;SDS011;57876;47.792;12.960;2023-02-01T13:24:47;3.45;;;0.70;;
70433;SDS011;57876;47.792;12.960;2023-02-01T13:27:15;3.55;;;0.60;;
70433;SDS011;57876;47.792;12.960;2023-02-01T13:29:52;3.90;;;0.80;;
70433;SDS011;57876;47.792;12.960;2023-02-01T13:35:35;2.73;;;0.60;;
70433;SDS011;57876;47.792;12.960;2023-02-01T13:40:54;2.83;;;0.40;;
70433;SDS011;57876;47.792;12.960;2023-02-01T13:43:46;3.60;;;0.60;;
70433;SDS011;57876;47.792;12.960;2023-02-01T13:46:14;3.05;;;0.50;;
70433;SDS011;57876;47.792;12.960;2023-02-01T13:51:15;3.55;;;0.68;;
70433;SDS011;57876;47.792;12.960;2023-02-01T13:53:55;2.58;;;0.50;;
70433;SDS011;57876;47.792;12.960;2023-02-01T13:56:20;3.33;;;0.70;;
70433;SDS011;57876;47.792;12.960;2023-02-01T13:58:48;2.42;;;0.50;;
70433;SDS011;57876;47.792;12.960;2023-02-01T14:03:49;3.55;;;0.50;;
70433;SDS011;57876;47.792;12.960;2023-02-01T14:11:50;3.00;;;0.57;;
70433;SDS011;57876;47.792;12.960;2023-02-01T14:16:44;4.07;;;0.80;;
70433;SDS011;57876;47.792;12.960;2023-02-01T14:22:40;2.90;;;0.50;;
70433;SDS011;57876;47.792;12.960;2023-02-01T14:24:52;3.75;;;0.60;;
70433;SDS011;57876;47.792;12.960;2023-02-01T14:27:19;3.40;;;0.70;;
70433;SDS011;57876;47.792;12.960;2023-02-01T14:29:50;4.37;;;1.00;;
70433;SDS011;57876;47.792;12.960;2023-02-01T14:32:22;4.22;;;0.70;;
70433;SDS011;57876;47.792;12.960;2023-02-01T14:34:53;4.20;;;1.00;;
70433;SDS011;57876;47.792;12.960;2023-02-01T14:44:54;4.13;;;1.20;;
70433;SDS011;57876;47.792;12.960;2023-02-01T14:49:49;4.53;;;1.10;;
70433;SDS011;57876;47.792;12.960;2023-02-01T14:52:20;4.05;;;0.93;;
70433;SDS011;57876;47.792;12.960;2023-02-01T14:54:49;4.30;;;1.00;;
70433;SDS011;57876;47.792;12.960;2023-02-01T14:57:19;4.43;;;1.05;;
70433;SDS011;57876;47.792;12.960;2023-02-01T14:59:47;4.57;;;0.97;;
70433;SDS011;57876;47.792;12.960;2023-02-01T15:02:21;3.85;;;0.90;;
70433;SDS011;57876;47.792;12.960;2023-02-01T15:04:53;4.40;;;1.00;;
70433;SDS011;57876;47.792;12.960;2023-02-01T15:07:21;5.22;;;1.23;;
70433;SDS011;57876;47.792;12.960;2023-02-01T15:09:48;5.60;;;1.00;;
70433;SDS011;57876;47.792;12.960;2023-02-01T15:14:42;4.75;;;1.20;;
70433;SDS011;57876;47.792;12.960;2023-02-01T15:17:20;4.63;;;0.93;;
70433;SDS011;57876;47.792;12.960;2023-02-01T15:19:53;4.43;;;1.00;;
70433;SDS011;57876;47.792;12.960;2023-02-01T15:22:22;4.65;;;1.10;;
70433;SDS011;57876;47.792;12.960;2023-02-01T15:24:53;4.30;;;1.10;;
70433;SDS011;57876;47.792;12.960;2023-02-01T15:27:18;4.40;;;1.20;;
70433;SDS011;57876;47.792;12.960;2023-02-01T15:29:44;4.40;;;1.23;;
70433;SDS011;57876;47.792;12.960;2023-02-01T15:32:15;4.47;;;1.23;;
70433;SDS011;57876;47.792;12.960;2023-02-01T15:34:56;4.75;;;1.20;;
70433;SDS011;57876;47.792;12.960;2023-02-01T15:37:20;4.73;;;1.10;;
70433;SDS011;57876;47.792;12.960;2023-02-01T15:40:14;4.95;;;1.00;;
70433;SDS011;57876;47.792;12.960;2023-02-01T15:42:51;4.45;;;1.20;;
70433;SDS011;57876;47.792;12.960;2023-02-01T15:45:18;4.72;;;1.10;;
70433;SDS011;57876;47.792;12.960;2023-02-01T15:47:46;4.75;;;1.15;;
70433;SDS011;57876;47.792;12.960;2023-02-01T15:50:16;5.23;;;1.10;;
70433;SDS011;57876;47.792;12.960;2023-02-01T15:52:43;4.35;;;1.10;;
70433;SDS011;57876;47.792;12.960;2023-02-01T15:55:19;4.65;;;1.20;;
70433;SDS011;57876;47.792;12.960;2023-02-01T15:57:48;4.40;;;1.10;;
70433;SDS011;57876;47.792;12.960;2023-02-01T16:02:52;4.73;;;1.10;;
70433;SDS011;57876;47.792;12.960;2023-02-01T16:05:27;4.55;;;1.10;;
70433;SDS011;57876;47.792;12.960;2023-02-01T16:07:57;4.18;;;0.80;;
70433;SDS011;57876;47.792;12.960;2023-02-01T16:10:46;8.57;;;1.17;;
70433;SDS011;57876;47.792;12.960;2023-02-01T16:13:14;6.05;;;1.20;;
70433;SDS011;57876;47.792;12.960;2023-02-01T16:15:40;4.30;;;1.00;;
70433;SDS011;57876;47.792;12.960;2023-02-01T16:18:04;4.33;;;1.03;;
70433;SDS011;57876;47.792;12.960;2023-02-01T16:20:32;4.60;;;1.00;;
70433;SDS011;57876;47.792;12.960;2023-02-01T16:22:57;3.90;;;0.90;;
70433;SDS011;57876;47.792;12.960;2023-02-01T16:25:21;4.40;;;1.00;;
70433;SDS011;57876;47.792;12.960;2023-02-01T16:27:46;4.45;;;0.93;;
70433;SDS011;57876;47.792;12.960;2023-02-01T16:30:10;5.03;;;1.13;;
70433;SDS011;57876;47.792;12.960;2023-02-01T16:32:35;7.18;;;1.13;;
70433;SDS011;57876;47.792;12.960;2023-02-01T16:35:22;6.37;;;1.20;;
70433;SDS011;57876;47.792;12.960;2023-02-01T16:37:50;4.65;;;1.10;;
70433;SDS011;57876;47.792;12.960;2023-02-01T16:40:15;4.72;;;1.17;;
70433;SDS011;57876;47.792;12.960;2023-02-01T16:42:41;5.07;;;1.40;;
70433;SDS011;57876;47.792;12.960;2023-02-01T16:45:06;4.88;;;1.02;;
70433;SDS011;57876;47.792;12.960;2023-02-01T16:47:32;9.02;;;1.00;;
70433;SDS011;57876;47.792;12.960;2023-02-01T16:49:57;6.18;;;1.00;;
70433;SDS011;57876;47.792;12.960;2023-02-01T16:52:23;6.13;;;1.10;;
70433;SDS011;57876;47.792;12.960;2023-02-01T16:54:49;4.20;;;1.10;;
70433;SDS011;57876;47.792;12.960;2023-02-01T16:57:14;4.57;;;1.10;;
70433;SDS011;57876;47.792;12.960;2023-02-01T16:59:40;4.88;;;1.10;;
70433;SDS011;57876;47.792;12.960;2023-02-01T17:02:05;5.23;;;1.00;;
70433;SDS011;57876;47.792;12.960;2023-02-01T17:04:30;5.20;;;1.13;;
70433;SDS011;57876;47.792;12.960;2023-02-01T17:06:54;5.43;;;1.03;;
70433;SDS011;57876;47.792;12.960;2023-02-01T17:09:18;4.80;;;1.05;;
70433;SDS011;57876;47.792;12.960;2023-02-01T17:11:44;5.50;;;0.90;;